»·PEaware :: N313N KOAK-KSBA

N313N :: KOAK-KSBA

FLIGHT INFORMATION

Flight Status: Arrived
Operator: Privately registered:
United States
More flights under this callsign
Pilot: Damien O. (2415)
Aircraft: GULFSTREAM G-1159C GULFSTREAM 4
(GLF4)
More flights by this aircraft type
Origin: KOAK Metro Oakland Intl
United States
Destination: KSBA Santa Barbara Mun
United States
More flights between these airports :: More routes between these airports
Route: +COAST9 GVO HABUT
File this flight plan on PilotEdge
Remarks:
Altitude:
(Current/Filed)
270ft
Speed:
(Current/Filed)
330kts
Departed: 08-Nov-19 02:11 PM
Arrived: 08-Nov-19 03:04 PM
Distance/Time
Traveled:
229nm/0:53
Distance/Time
To Go:
Arrived

Flight Plot

Page will automatically refresh every two minutes.

Flight plan parsing failed; only flown route is shown


Map Options




Map Legend


Flown Route
Filed Route
Departure Airport
Arrival Airport
Navaid (VOR, NDB)
Fix

Horizontal Profiles

Position Reports

Time Latitude Longitude Heading Altitude Ground
Speed
08-Nov-19 14:02 37.710138 -122.216563 25 14ft 0kts
08-Nov-19 14:03 37.710138 -122.216563 25 14ft 0kts
08-Nov-19 14:04 37.710138 -122.216563 25 14ft 0kts
08-Nov-19 14:05 37.710138 -122.216563 25 14ft 0kts
08-Nov-19 14:06 37.710138 -122.216563 25 14ft 0kts
08-Nov-19 14:07 37.709759 -122.216787 39 14ft 3kts
08-Nov-19 14:08 37.706113 -122.217581 126 14ft 13kts
08-Nov-19 14:09 37.703014 -122.213699 162 14ft 7kts
08-Nov-19 14:10 37.702134 -122.215254 309 14ft 45kts
08-Nov-19 14:11 37.735971 -122.266897 309 1458ft 207kts
08-Nov-19 14:12 37.774745 -122.326999 309 3871ft 224kts
08-Nov-19 14:13 37.760781 -122.392600 223 6744ft 241kts
08-Nov-19 14:14 37.712004 -122.451905 223 10169ft 248kts
08-Nov-19 14:15 37.661322 -122.512875 223 13566ft 261kts
08-Nov-19 14:16 37.600270 -122.587891 223 17113ft 410kts
08-Nov-19 14:17 37.517131 -122.691343 223 20535ft 430kts
08-Nov-19 14:18 37.418125 -122.751693 149 24569ft 447kts
08-Nov-19 14:19 37.303870 -122.681614 153 26990ft 465kts
08-Nov-19 14:20 37.178954 -122.641955 164 27006ft 465kts
08-Nov-19 14:21 37.053064 -122.605638 164 27005ft 465kts
08-Nov-19 14:22 36.925706 -122.572708 166 27006ft 470kts
08-Nov-19 14:23 36.797303 -122.545266 166 27003ft 471kts
08-Nov-19 14:24 36.668535 -122.517710 166 26998ft 471kts
08-Nov-19 14:25 36.539447 -122.490023 166 26997ft 471kts
08-Nov-19 14:26 36.410399 -122.462304 166 27033ft 472kts
08-Nov-19 14:27 36.304333 -122.359780 127 27034ft 512kts
08-Nov-19 14:28 36.214781 -122.224299 128 27037ft 511kts
08-Nov-19 14:29 36.124902 -122.088287 127 27036ft 511kts
08-Nov-19 14:30 36.035836 -121.953126 127 25637ft 503kts
08-Nov-19 14:31 35.949066 -121.820278 127 23818ft 491kts
08-Nov-19 14:32 35.864910 -121.690317 127 22004ft 480kts
08-Nov-19 14:33 35.782832 -121.562564 127 20192ft 472kts
08-Nov-19 14:34 35.702438 -121.436541 127 18380ft 466kts
08-Nov-19 14:35 35.623590 -121.312221 127 16569ft 456kts
08-Nov-19 14:36 35.546662 -121.190394 127 14771ft 448kts
08-Nov-19 14:37 35.476385 -121.079307 127 12936ft 373kts
08-Nov-19 14:38 35.417519 -120.987088 127 11110ft 322kts
08-Nov-19 14:39 35.364412 -120.905973 127 9284ft 291kts
08-Nov-19 14:41 35.315265 -120.832225 127 8984ft 284kts
08-Nov-19 14:42 35.265237 -120.757116 127 8981ft 283kts
08-Nov-19 14:43 35.209447 -120.690102 143 8984ft 286kts
08-Nov-19 14:44 35.144171 -120.634726 143 8983ft 286kts
08-Nov-19 14:45 35.078986 -120.579439 143 8988ft 285kts
08-Nov-19 14:46 35.013793 -120.524167 143 8996ft 286kts
08-Nov-19 14:47 34.948426 -120.468967 143 7601ft 280kts
08-Nov-19 14:48 34.886029 -120.415815 143 5791ft 269kts
08-Nov-19 14:49 34.827574 -120.364820 143 4997ft 255kts
08-Nov-19 14:50 34.769237 -120.312929 143 4981ft 260kts
08-Nov-19 14:51 34.711301 -120.260136 143 4971ft 250kts
08-Nov-19 14:52 34.664854 -120.216330 143 4951ft 180kts
08-Nov-19 14:53 34.623618 -120.177266 143 4964ft 190kts
08-Nov-19 14:54 34.581975 -120.137829 143 4963ft 190kts
08-Nov-19 14:55 34.540403 -120.098467 143 4962ft 190kts
08-Nov-19 14:56 34.490896 -120.088034 173 4950ft 188kts
08-Nov-19 14:57 34.454006 -120.043880 132 4954ft 189kts
08-Nov-19 14:58 34.419637 -119.995824 132 4947ft 188kts
08-Nov-19 14:59 34.395931 -119.943100 82 4952ft 194kts
08-Nov-19 15:00 34.397996 -119.879177 92 3330ft 180kts
08-Nov-19 15:00 34.398069 -119.830473 92 1974ft 169kts
08-Nov-19 15:01 34.419044 -119.795175 336 1489ft 165kts
08-Nov-19 15:03 34.427577 -119.845290 268 21ft 65kts
08-Nov-19 15:03 34.428931 -119.844433 66 21ft 18kts
08-Nov-19 15:04 34.431901 -119.836253 67 21ft 22kts
08-Nov-19 15:06 34.432543 -119.835071 27 21ft 0kts
08-Nov-19 15:06 34.432543 -119.835071 27 21ft 0kts
08-Nov-19 15:07 34.432543 -119.835071 27 21ft 0kts
08-Nov-19 15:08 34.432543 -119.835071 27 21ft 0kts
08-Nov-19 15:09 34.432543 -119.835071 27 21ft 0kts

Navigation Log

Ident Type
Flight plan parsing failed, navigation log unavailable